Time;durP1;ratioP1;P1;durP2;ratioP2;P2;SDS_P1;SDS_P2;PMS_P1;PMS_P2;Temp;Humidity;BMP_temperature;BMP_pressure;BME280_temperature;BME280_humidity;BME280_pressure;Samples;Min_cycle;Max_cycle;Signal;HPM_P1;HPM_P2
2024/03/28 00:00:26;;;;;;;9.30;5.90;;;;;;;6.64;64.25;98892.17;107414;1254;66291;-38
2024/03/28 00:02:53;;;;;;;8.60;6.40;;;;;;;6.65;64.15;98889.42;107384;1254;72717;-38
2024/03/28 00:05:21;;;;;;;8.40;5.90;;;;;;;6.67;64.07;98883.58;107587;1257;61300;-38
2024/03/28 00:07:48;;;;;;;8.80;6.20;;;;;;;6.70;63.89;98889.70;107499;1259;61260;-38
2024/03/28 00:10:16;;;;;;;7.80;5.90;;;;;;;6.72;64.01;98885.30;107490;1254;73402;-38
2024/03/28 00:12:43;;;;;;;8.20;6.00;;;;;;;6.81;63.72;98886.06;107521;1254;67600;-38
2024/03/28 00:15:10;;;;;;;7.90;5.80;;;;;;;6.88;63.40;98886.03;107479;1259;72789;-38
2024/03/28 00:17:40;;;;;;;8.90;6.30;;;;;;;6.89;63.22;98887.59;107491;1254;61222;-38
2024/03/28 00:20:07;;;;;;;8.60;5.70;;;;;;;6.90;63.16;98882.48;107500;1255;61186;-38
2024/03/28 00:22:34;;;;;;;10.50;6.90;;;;;;;6.91;63.14;98880.49;107718;1254;74723;-38
2024/03/28 00:25:02;;;;;;;10.40;6.50;;;;;;;6.92;63.07;98874.90;107548;1254;67619;-38
2024/03/28 00:27:30;;;;;;;8.30;6.30;;;;;;;6.92;62.80;98875.45;107666;1256;72681;-38
2024/03/28 00:29:57;;;;;;;9.90;6.00;;;;;;;6.92;62.77;98873.66;107532;1254;61805;-38
2024/03/28 00:32:24;;;;;;;10.60;7.00;;;;;;;6.91;62.78;98870.48;107543;1254;59972;-38
2024/03/28 00:34:53;;;;;;;7.60;5.70;;;;;;;6.91;62.61;98869.23;107529;1254;74735;-38
2024/03/28 00:37:21;;;;;;;10.20;6.30;;;;;;;6.90;62.45;98860.46;107496;1254;66416;-38
2024/03/28 00:39:49;;;;;;;12.40;6.40;;;;;;;6.90;62.62;98858.70;107659;1254;71453;-38
2024/03/28 00:42:17;;;;;;;7.90;6.10;;;;;;;6.90;62.48;98860.38;107516;1254;61346;-38
2024/03/28 00:44:44;;;;;;;8.50;6.20;;;;;;;6.88;62.39;98851.39;107506;1254;61153;-38
2024/03/28 00:47:12;;;;;;;7.90;5.70;;;;;;;6.86;62.24;98845.58;107507;1254;73341;-38
2024/03/28 00:49:39;;;;;;;8.60;6.20;;;;;;;6.85;62.34;98848.23;107645;1253;66434;-38
2024/03/28 00:52:07;;;;;;;8.70;5.60;;;;;;;6.84;62.35;98848.05;107533;1254;72686;-38
2024/03/28 00:54:35;;;;;;;8.80;6.20;;;;;;;6.84;62.36;98850.75;107510;1259;61303;-38
2024/03/28 00:57:03;;;;;;;11.70;5.80;;;;;;;6.83;62.25;98847.73;107465;1255;61093;-38
2024/03/28 00:59:30;;;;;;;7.60;5.60;;;;;;;6.80;62.14;98845.73;107368;1252;73405;-38
2024/03/28 01:01:58;;;;;;;8.30;6.00;;;;;;;6.81;62.19;98846.05;107408;1255;67630;-38
2024/03/28 01:04:25;;;;;;;9.10;6.30;;;;;;;6.80;62.19;98849.03;107476;1254;72736;-38
2024/03/28 01:06:53;;;;;;;9.60;5.40;;;;;;;6.80;62.25;98848.42;107669;1257;61244;-38
2024/03/28 01:09:21;;;;;;;8.10;5.10;;;;;;;6.86;62.20;98840.10;107594;1257;61176;-38
2024/03/28 01:11:48;;;;;;;7.20;5.00;;;;;;;6.94;62.00;98830.23;107445;1255;75038;-38
2024/03/28 01:14:16;;;;;;;8.80;5.40;;;;;;;6.97;61.78;98830.52;107597;1257;67643;-38
2024/03/28 01:16:43;;;;;;;7.30;5.10;;;;;;;6.98;61.82;98832.53;107487;1254;71975;-38
2024/03/28 01:19:10;;;;;;;6.30;5.10;;;;;;;6.99;61.59;98836.50;107478;1255;61214;-38
2024/03/28 01:21:38;;;;;;;7.50;4.80;;;;;;;6.99;61.58;98836.57;107522;1254;61037;-38
2024/03/28 01:24:05;;;;;;;10.30;5.50;;;;;;;6.99;61.63;98830.48;107520;1254;75111;-38
2024/03/28 01:26:32;;;;;;;6.90;4.70;;;;;;;7.00;61.43;98831.08;106767;1254;1003752;-38
2024/03/28 01:29:00;;;;;;;8.20;5.10;;;;;;;7.01;61.39;98830.08;107489;1255;72682;-38
2024/03/28 01:31:27;;;;;;;8.20;5.00;;;;;;;7.01;61.32;98835.17;107485;1254;61247;-38
2024/03/28 01:33:54;;;;;;;7.00;4.90;;;;;;;7.01;61.22;98833.16;107483;1253;61304;-37
2024/03/28 01:36:22;;;;;;;8.80;5.00;;;;;;;6.99;61.14;98829.72;107504;1255;74679;-38
2024/03/28 01:38:49;;;;;;;6.80;4.80;;;;;;;6.97;61.14;98819.67;107601;1253;66577;-37
2024/03/28 01:41:17;;;;;;;8.80;5.40;;;;;;;6.95;60.97;98823.94;107600;1254;71448;-38
2024/03/28 01:43:45;;;;;;;9.10;4.70;;;;;;;6.95;61.19;98823.91;107605;1257;61087;-38
2024/03/28 01:46:16;;;;;;;6.20;5.00;;;;;;;6.94;61.32;98828.08;107614;1254;61146;-38
2024/03/28 01:48:46;;;;;;;8.20;4.90;;;;;;;6.93;61.14;98820.33;107594;1255;74681;-38
2024/03/28 01:51:13;;;;;;;7.50;5.20;;;;;;;6.92;61.22;98817.70;107503;1260;65334;-38
2024/03/28 01:53:41;;;;;;;6.80;5.00;;;;;;;6.91;61.18;98815.54;107476;1259;71502;-38
2024/03/28 01:56:08;;;;;;;7.20;4.90;;;;;;;6.91;61.12;98819.84;107606;1255;61672;-38
2024/03/28 01:58:36;;;;;;;6.40;4.90;;;;;;;6.92;61.11;98815.15;107382;1254;61179;-38
2024/03/28 02:01:04;;;;;;;5.60;4.50;;;;;;;6.92;61.09;98815.61;107610;1256;73369;-38
2024/03/28 02:03:31;;;;;;;7.10;4.60;;;;;;;6.91;61.17;98810.45;106697;1254;1002911;-38
2024/03/28 02:05:59;;;;;;;7.00;4.60;;;;;;;6.91;61.12;98803.67;107574;1254;72703;-38
2024/03/28 02:08:27;;;;;;;7.80;4.80;;;;;;;6.92;61.10;98807.75;107482;1260;60233;-38
2024/03/28 02:10:55;;;;;;;8.60;4.90;;;;;;;6.92;61.16;98806.38;107383;1262;59739;-38
2024/03/28 02:13:23;;;;;;;5.90;4.80;;;;;;;6.92;61.22;98803.91;107608;1253;72622;-38
2024/03/28 02:15:51;;;;;;;7.10;4.40;;;;;;;6.91;61.27;98805.89;107581;1253;67803;-38
2024/03/28 02:18:22;;;;;;;8.60;5.60;;;;;;;6.91;61.30;98804.44;107619;1257;72648;-38
2024/03/28 02:20:49;;;;;;;6.80;4.30;;;;;;;6.92;61.31;98801.77;107654;1257;61227;-38
2024/03/28 02:23:17;;;;;;;6.00;4.70;;;;;;;6.91;61.29;98801.52;107567;1254;61107;-38
2024/03/28 02:25:48;;;;;;;10.40;5.10;;;;;;;6.89;61.32;98793.89;107461;1260;73365;-38
2024/03/28 02:28:16;;;;;;;7.00;4.90;;;;;;;6.89;61.38;98794.42;107489;1259;66617;-38
2024/03/28 02:30:44;;;;;;;8.70;4.10;;;;;;;6.90;61.45;98789.08;106721;1254;1002980;-38
2024/03/28 02:33:11;;;;;;;7.80;4.50;;;;;;;6.98;61.34;98791.13;107394;1254;61116;-38
2024/03/28 02:35:38;;;;;;;6.00;3.90;;;;;;;7.03;61.25;98785.91;107386;1260;61898;-38
2024/03/28 02:38:06;;;;;;;5.20;4.10;;;;;;;7.05;61.05;98783.04;107419;1254;74655;-38
2024/03/28 02:40:33;;;;;;;6.60;4.70;;;;;;;7.07;61.08;98785.09;107455;1260;67577;-38
2024/03/28 02:43:01;;;;;;;9.40;4.70;;;;;;;7.08;61.04;98782.89;107464;1260;72738;-38
2024/03/28 02:45:28;;;;;;;5.90;4.20;;;;;;;7.09;60.92;98782.75;107482;1254;61221;-38
2024/03/28 02:47:56;;;;;;;5.80;4.30;;;;;;;7.09;60.88;98784.14;107539;1254;61189;-38
2024/03/28 02:50:23;;;;;;;5.90;4.40;;;;;;;7.10;60.88;98788.10;107479;1254;74649;-38
2024/03/28 02:52:51;;;;;;;7.10;4.80;;;;;;;7.11;60.85;98783.64;107523;1255;66783;-38
2024/03/28 02:55:18;;;;;;;6.50;4.50;;;;;;;7.09;60.76;98786.77;106117;1254;1003756;-38
2024/03/28 02:57:45;;;;;;;6.90;4.50;;;;;;;7.07;60.94;98784.46;107505;1253;61024;-38
2024/03/28 03:00:14;;;;;;;6.00;4.20;;;;;;;7.06;60.92;98780.68;107537;1260;61108;-38
2024/03/28 03:02:41;;;;;;;7.10;4.40;;;;;;;7.05;60.92;98774.64;107571;1260;74613;-38
2024/03/28 03:05:08;;;;;;;6.20;4.60;;;;;;;7.04;61.03;98773.92;107529;1258;67754;-38
2024/03/28 03:07:36;;;;;;;6.30;4.30;;;;;;;7.02;60.90;98776.51;107534;1254;71439;-38
2024/03/28 03:10:04;;;;;;;6.10;4.10;;;;;;;7.01;60.84;98773.10;107509;1254;61847;-38
2024/03/28 03:12:32;;;;;;;6.10;4.30;;;;;;;7.00;60.86;98771.38;107658;1254;61119;-38
2024/03/28 03:14:59;;;;;;;7.40;4.70;;;;;;;6.99;60.75;98765.35;107505;1260;74688;-38
2024/03/28 03:17:27;;;;;;;7.10;4.50;;;;;;;6.99;60.96;98763.59;107603;1256;67601;-37
2024/03/28 03:19:58;;;;;;;8.50;4.70;;;;;;;6.99;60.87;98765.59;107609;1257;72706;-38
2024/03/28 03:22:28;;;;;;;6.80;4.80;;;;;;;6.98;60.87;98755.64;107508;1260;61119;-38
2024/03/28 03:24:58;;;;;;;6.60;4.40;;;;;;;6.98;60.72;98767.72;107515;1254;61103;-38
2024/03/28 03:27:32;;;;;;;6.40;4.20;;;;;;;6.98;60.72;98764.25;107500;1259;73372;-38
2024/03/28 03:35:33;;;;;;;5.90;4.50;;;;;;;6.95;60.48;98768.11;107405;1257;61362;-38
2024/03/28 03:38:00;;;;;;;7.80;4.50;;;;;;;6.96;60.38;98763.22;107432;1260;60034;-38
2024/03/28 03:40:28;;;;;;;5.30;4.20;;;;;;;6.96;60.30;98758.98;107427;1254;73408;-38
2024/03/28 03:42:55;;;;;;;7.60;4.50;;;;;;;6.98;60.26;98748.77;107442;1255;66300;-38
2024/03/28 03:45:23;;;;;;;8.00;4.50;;;;;;;6.97;60.14;98740.67;107458;1254;72738;-38
2024/03/28 03:47:50;;;;;;;6.40;3.70;;;;;;;6.97;60.15;98731.98;107442;1258;60427;-38
2024/03/28 03:50:18;;;;;;;7.70;4.50;;;;;;;6.97;60.12;98728.90;107450;1254;61082;-37
2024/03/28 03:52:45;;;;;;;7.10;4.20;;;;;;;6.99;60.10;98731.25;107345;1254;74646;-38
2024/03/28 03:55:12;;;;;;;5.10;3.80;;;;;;;6.99;59.99;98729.70;107311;1254;67901;-38
2024/03/28 03:57:40;;;;;;;4.90;4.10;;;;;;;6.99;59.95;98722.69;107309;1259;71260;-37
2024/03/28 04:00:10;;;;;;;5.70;4.00;;;;;;;6.99;59.84;98726.23;107407;1260;61308;-38
2024/03/28 04:02:37;;;;;;;8.50;4.50;;;;;;;6.98;59.67;98726.05;107444;1254;61266;-38
2024/03/28 04:05:06;;;;;;;5.00;3.90;;;;;;;6.97;59.95;98725.73;107438;1254;73362;-38
2024/03/28 04:07:34;;;;;;;5.60;4.60;;;;;;;6.97;59.84;98721.58;107494;1259;66343;-38
2024/03/28 04:10:02;;;;;;;6.00;4.00;;;;;;;6.97;59.93;98718.58;107344;1254;72729;-38
2024/03/28 04:12:29;;;;;;;5.50;3.90;;;;;;;6.97;59.94;98714.03;107390;1254;61192;-38
2024/03/28 04:14:56;;;;;;;6.30;4.00;;;;;;;6.97;59.98;98710.57;107444;1254;61009;-38
2024/03/28 04:17:24;;;;;;;9.00;3.80;;;;;;;6.98;59.82;98716.60;105189;1254;1003024;-38
2024/03/28 04:19:51;;;;;;;5.80;4.00;;;;;;;6.99;59.80;98714.29;107332;1254;67607;-38
2024/03/28 04:22:19;;;;;;;6.50;3.70;;;;;;;7.00;59.74;98714.02;107365;1254;72300;-38
2024/03/28 04:24:46;;;;;;;5.90;3.90;;;;;;;7.01;59.79;98705.10;107415;1255;61359;-38
2024/03/28 04:27:14;;;;;;;5.70;3.80;;;;;;;7.01;59.69;98706.96;107426;1254;58972;-38
2024/03/28 04:29:42;;;;;;;4.50;3.70;;;;;;;7.02;59.65;98705.44;107431;1254;73375;-38
2024/03/28 04:32:22;;;;;;;5.60;3.50;;;;;;;7.02;59.56;98699.58;107489;1254;67929;-38
2024/03/28 04:34:49;;;;;;;3.90;3.20;;;;;;;7.02;59.51;98699.43;107545;1258;72687;-38
2024/03/28 04:37:17;;;;;;;5.70;3.70;;;;;;;7.01;59.36;98700.95;107624;1254;61407;-38
2024/03/28 04:39:45;;;;;;;6.40;3.70;;;;;;;7.02;59.36;98697.59;107490;1258;60389;-38
2024/03/28 04:42:12;;;;;;;4.60;3.40;;;;;;;7.04;59.37;98693.77;107481;1254;74004;-38
2024/03/28 04:44:40;;;;;;;4.00;3.40;;;;;;;7.04;59.31;98701.34;107614;1254;66298;-38
2024/03/28 04:47:08;;;;;;;6.60;3.90;;;;;;;7.07;59.11;98698.14;107583;1254;73094;-38
2024/03/28 04:49:35;;;;;;;4.90;3.50;;;;;;;7.08;59.17;98692.69;107492;1254;60407;-38
2024/03/28 04:52:04;;;;;;;4.80;3.60;;;;;;;7.09;59.11;98696.98;107657;1254;60971;-38
2024/03/28 04:54:32;;;;;;;7.10;3.40;;;;;;;7.11;58.96;98696.63;107504;1254;73723;-38
2024/03/28 04:57:00;;;;;;;4.80;3.40;;;;;;;7.14;58.94;98693.45;107379;1254;67578;-38
2024/03/28 04:59:28;;;;;;;7.00;3.70;;;;;;;7.17;58.94;98694.91;107403;1254;72716;-38
2024/03/28 05:01:55;;;;;;;7.70;3.50;;;;;;;7.20;58.41;98689.27;107428;1254;61090;-38
2024/03/28 05:04:22;;;;;;;6.40;3.70;;;;;;;7.22;58.29;98688.32;107433;1253;61212;-38
2024/03/28 05:06:50;;;;;;;5.80;3.20;;;;;;;7.25;58.08;98682.30;107538;1259;74607;-38
2024/03/28 05:09:18;;;;;;;4.70;3.20;;;;;;;7.27;58.05;98677.64;107656;1254;66766;-38
2024/03/28 05:11:45;;;;;;;4.50;3.10;;;;;;;7.30;57.79;98681.17;107489;1260;70402;-38
2024/03/28 05:14:14;;;;;;;4.20;3.30;;;;;;;7.34;57.47;98680.48;107479;1254;61330;-38
2024/03/28 05:16:44;;;;;;;5.80;3.20;;;;;;;7.37;57.46;98682.39;107515;1254;61126;-38
2024/03/28 05:19:12;;;;;;;4.20;2.90;;;;;;;7.42;57.67;98678.41;107502;1254;74653;-38
2024/03/28 05:21:39;;;;;;;5.10;3.30;;;;;;;7.48;57.34;98680.73;107612;1254;67863;-38
2024/03/28 05:24:07;;;;;;;5.30;3.10;;;;;;;7.52;56.90;98674.95;107466;1254;72695;-38
2024/03/28 05:26:35;;;;;;;6.30;3.60;;;;;;;7.55;56.60;98673.34;106757;1254;1003022;-38
2024/03/28 05:29:02;;;;;;;3.60;2.80;;;;;;;7.58;56.66;98666.79;107542;1254;59983;-38
2024/03/28 05:31:31;;;;;;;5.80;3.60;;;;;;;7.62;56.69;98669.71;107449;1254;74672;-38
2024/03/28 05:33:58;;;;;;;4.90;3.30;;;;;;;7.66;56.37;98661.67;107490;1260;67881;-38
2024/03/28 05:36:26;;;;;;;5.00;3.10;;;;;;;7.68;56.14;98661.81;107442;1254;72646;-38
2024/03/28 05:38:54;;;;;;;5.90;3.10;;;;;;;7.70;55.96;98652.52;107442;1257;60453;-38
2024/03/28 05:41:21;;;;;;;4.20;3.10;;;;;;;7.73;56.16;98656.73;107417;1254;61235;-38
2024/03/28 05:43:48;;;;;;;6.30;3.50;;;;;;;7.76;55.87;98656.70;107425;1254;74688;-38
2024/03/28 05:46:16;;;;;;;5.40;3.20;;;;;;;7.79;55.65;98650.45;107450;1259;67900;-38
2024/03/28 05:48:43;;;;;;;4.70;2.90;;;;;;;7.82;55.68;98653.21;107210;1257;72723;-38
2024/03/28 05:51:10;;;;;;;4.80;2.90;;;;;;;7.88;55.57;98649.76;107267;1254;61110;-38
2024/03/28 05:53:38;;;;;;;5.60;3.00;;;;;;;7.92;55.26;98649.30;107449;1255;61202;-38
2024/03/28 05:56:06;;;;;;;4.30;2.80;;;;;;;7.98;55.23;98646.95;107391;1259;74677;-38
2024/03/28 05:58:33;;;;;;;3.80;2.90;;;;;;;8.06;55.19;98646.85;107323;1259;67573;-38
2024/03/28 06:01:00;;;;;;;3.40;2.80;;;;;;;8.14;54.76;98644.52;107364;1254;71385;-38
2024/03/28 06:03:28;;;;;;;4.80;2.70;;;;;;;8.22;54.68;98633.46;107461;1254;60981;-38
2024/03/28 06:05:55;;;;;;;7.80;3.70;;;;;;;8.30;54.59;98624.96;107369;1254;61186;-38
2024/03/28 06:08:23;;;;;;;5.10;2.80;;;;;;;8.37;53.85;98629.32;107318;1259;73441;-38
2024/03/28 06:10:50;;;;;;;6.20;2.60;;;;;;;8.42;53.36;98621.68;107316;1256;67583;-38
2024/03/28 06:13:18;;;;;;;5.80;3.80;;;;;;;8.47;53.17;98611.42;107369;1254;72691;-38
2024/03/28 06:15:46;;;;;;;3.90;2.80;;;;;;;8.52;53.48;98607.48;107422;1257;61251;-38
2024/03/28 06:18:13;;;;;;;3.90;2.50;;;;;;;8.60;53.53;98604.98;107417;1254;61234;-38
2024/03/28 06:20:41;;;;;;;7.60;3.00;;;;;;;8.68;52.66;98602.47;107446;1254;74638;-38
2024/03/28 06:23:08;;;;;;;5.30;2.80;;;;;;;8.76;51.91;98601.73;107321;1254;66434;-38
2024/03/28 06:25:39;;;;;;;4.30;2.50;;;;;;;8.82;51.77;98592.56;107391;1254;71721;-38
2024/03/28 06:28:08;;;;;;;4.80;2.50;;;;;;;8.90;51.30;98596.83;107424;1254;61416;-38
2024/03/28 06:30:40;;;;;;;4.00;2.10;;;;;;;8.97;51.00;98589.20;107405;1254;60388;-38
2024/03/28 06:33:07;;;;;;;4.90;2.30;;;;;;;9.06;50.67;98587.21;107526;1254;72429;-38
2024/03/28 06:35:35;;;;;;;3.70;2.10;;;;;;;9.14;50.39;98583.54;107507;1254;69929;-38
2024/03/28 06:38:03;;;;;;;3.80;2.50;;;;;;;9.23;49.88;98581.01;107504;1254;74851;-38
2024/03/28 06:40:30;;;;;;;4.40;2.40;;;;;;;9.33;49.91;98574.25;107502;1259;61231;-38
2024/03/28 06:42:59;;;;;;;4.20;2.60;;;;;;;9.44;49.25;98580.77;107520;1254;62357;-38
2024/03/28 06:45:26;;;;;;;4.20;2.10;;;;;;;9.53;48.37;98571.43;107420;1258;74833;-38
2024/03/28 06:47:54;;;;;;;3.90;2.40;;;;;;;9.60;48.39;98565.95;107405;1254;67738;-38
2024/03/28 06:50:21;;;;;;;4.10;2.60;;;;;;;9.68;48.37;98563.85;107350;1254;72827;-38
2024/03/28 06:52:50;;;;;;;3.30;2.30;;;;;;;9.75;48.17;98557.81;107425;1254;61221;-38
2024/03/28 06:55:19;;;;;;;3.40;2.30;;;;;;;9.81;48.42;98556.48;107572;1253;61077;-38
2024/03/28 06:57:46;;;;;;;3.80;2.20;;;;;;;9.92;48.39;98555.25;107545;1254;74657;-38
2024/03/28 07:00:15;;;;;;;5.00;2.50;;;;;;;10.06;48.29;98555.84;107521;1254;66376;-38
2024/03/28 07:02:42;;;;;;;3.80;2.40;;;;;;;10.19;47.91;98554.57;107496;1254;72762;-38
2024/03/28 07:05:09;;;;;;;5.10;2.50;;;;;;;10.31;47.48;98552.65;107503;1259;61371;-38
2024/03/28 07:07:37;;;;;;;4.50;2.30;;;;;;;10.41;47.64;98552.63;107514;1254;60473;-38
2024/03/28 07:10:08;;;;;;;3.40;2.00;;;;;;;10.52;46.86;98558.20;107533;1259;74743;-38
2024/03/28 07:12:36;;;;;;;3.00;2.00;;;;;;;10.61;46.84;98552.83;107465;1254;66823;-38
2024/03/28 07:15:04;;;;;;;6.90;2.00;;;;;;;10.69;46.66;98555.34;106753;1254;1003058;-38
2024/03/28 07:17:31;;;;;;;4.30;2.10;;;;;;;10.76;47.20;98555.55;107506;1253;61225;-38
2024/03/28 07:19:59;;;;;;;3.90;2.10;;;;;;;10.87;47.02;98551.34;107471;1254;61115;-38
2024/03/28 07:22:26;;;;;;;2.80;1.90;;;;;;;11.00;47.00;98554.10;107484;1258;75230;-38
2024/03/28 07:24:54;;;;;;;4.40;2.00;;;;;;;11.10;46.85;98556.48;107463;1254;66228;-38
2024/03/28 07:27:25;;;;;;;3.90;2.30;;;;;;;11.16;46.71;98552.15;107508;1254;71765;-38
2024/03/28 07:29:52;;;;;;;2.70;1.80;;;;;;;11.19;46.52;98547.13;107484;1254;61221;-38
2024/03/28 07:32:20;;;;;;;6.40;2.70;;;;;;;11.18;46.71;98547.65;107607;1257;60984;-38
2024/03/28 07:34:48;;;;;;;5.50;2.20;;;;;;;11.20;47.06;98547.06;107504;1254;74756;-38
2024/03/28 07:37:15;;;;;;;5.20;2.50;;;;;;;11.27;47.23;98546.61;107547;1254;66420;-38
2024/03/28 07:39:43;;;;;;;4.50;2.10;;;;;;;11.34;46.62;98547.40;107481;1254;72990;-38
2024/03/28 07:42:10;;;;;;;3.70;2.20;;;;;;;11.38;46.81;98538.34;107648;1254;61159;-38
2024/03/28 07:44:38;;;;;;;3.90;2.40;;;;;;;11.40;46.83;98541.98;107444;1252;294160;-38
2024/03/28 07:49:35;;;;;;;3.50;2.20;;;;;;;11.53;47.29;98536.51;104226;1294;600915;-38
2024/03/28 07:52:03;;;;;;;3.30;2.00;;;;;;;11.64;47.73;98529.70;106705;1267;60493;-38
2024/03/28 07:54:30;;;;;;;6.80;2.30;;;;;;;11.77;47.48;98521.67;106710;1267;60137;-38
2024/03/28 07:57:02;;;;;;;4.20;2.20;;;;;;;11.89;47.50;98525.64;106717;1265;75247;-38
2024/03/28 07:59:29;;;;;;;3.00;2.10;;;;;;;12.02;47.75;98525.85;106722;1267;68115;-39
2024/03/28 08:01:57;;;;;;;4.90;2.20;;;;;;;12.18;47.72;98524.92;106708;1267;71436;-39
2024/03/28 08:04:25;;;;;;;8.40;2.30;;;;;;;12.37;47.77;98515.02;106633;1263;174535;-39
2024/03/28 08:06:52;;;;;;;7.10;2.80;;;;;;;12.58;47.45;98516.23;106615;1266;59872;-37
2024/03/28 08:09:20;;;;;;;4.70;2.40;;;;;;;12.81;46.93;98518.33;106589;1265;71823;-37
2024/03/28 08:11:48;;;;;;;4.50;2.30;;;;;;;12.99;45.99;98519.56;106592;1265;67962;-37
2024/03/28 08:14:15;;;;;;;7.10;2.20;;;;;;;13.08;46.31;98519.07;106688;1266;74898;-37
2024/03/28 08:16:42;;;;;;;6.80;2.60;;;;;;;13.13;46.55;98518.60;106688;1266;60455;-38
2024/03/28 08:19:10;;;;;;;4.60;2.90;;;;;;;13.20;46.56;98515.85;106653;1265;60305;-37
2024/03/28 08:21:38;;;;;;;7.70;3.10;;;;;;;13.30;46.38;98518.91;106661;1265;72718;-37
2024/03/28 08:24:06;;;;;;;6.80;3.30;;;;;;;13.39;46.30;98511.70;106689;1265;66841;-38
2024/03/28 08:26:35;;;;;;;5.40;3.00;;;;;;;13.50;46.24;98505.48;106769;1266;71835;-37
2024/03/28 08:29:02;;;;;;;5.90;3.10;;;;;;;13.53;45.85;98514.65;106679;1266;60509;-38
2024/03/28 08:31:30;;;;;;;11.00;3.00;;;;;;;13.46;45.86;98507.61;106705;1271;60353;-38
2024/03/28 08:33:57;;;;;;;6.70;2.90;;;;;;;13.35;46.56;98503.86;106678;1266;74232;-38
2024/03/28 08:36:25;;;;;;;6.30;3.30;;;;;;;13.31;46.97;98503.35;106665;1270;67936;-38
2024/03/28 08:38:54;;;;;;;6.10;2.70;;;;;;;13.29;47.10;98495.35;106682;1266;70601;-38
2024/03/28 08:41:22;;;;;;;5.40;2.90;;;;;;;13.34;47.20;98496.25;106689;1265;60530;-38
2024/03/28 08:43:50;;;;;;;10.20;3.20;;;;;;;13.41;47.50;98487.27;106726;1267;60267;-38
2024/03/28 08:46:17;;;;;;;6.60;2.60;;;;;;;13.47;47.27;98482.86;106776;1266;74207;-38
2024/03/28 08:48:46;;;;;;;6.20;2.90;;;;;;;13.47;47.35;98480.05;106677;1266;68102;-38
2024/03/28 08:51:16;;;;;;;7.60;3.00;;;;;;;13.50;47.86;98477.33;106710;1270;74896;-38
2024/03/28 08:53:44;;;;;;;4.70;2.90;;;;;;;13.63;47.92;98472.80;106724;1265;62435;-38
2024/03/28 08:56:13;;;;;;;5.40;2.90;;;;;;;13.78;47.53;98472.82;106753;1264;60301;-38
2024/03/28 08:58:41;;;;;;;5.50;2.70;;;;;;;13.91;47.10;98456.84;106686;1266;76057;-38
2024/03/28 09:01:08;;;;;;;6.40;3.30;;;;;;;14.12;46.92;98456.55;106703;1264;66877;-38
2024/03/28 09:03:35;;;;;;;8.30;3.10;;;;;;;14.28;46.93;98455.46;106757;1266;72859;-38
2024/03/28 09:06:07;;;;;;;7.00;2.90;;;;;;;14.49;46.60;98456.43;106699;1268;60585;-38
2024/03/28 09:08:37;;;;;;;5.20;2.90;;;;;;;14.68;46.45;98452.46;106704;1266;60432;-38
2024/03/28 09:11:08;;;;;;;7.60;2.90;;;;;;;14.84;45.99;98449.93;106712;1266;71998;-38
2024/03/28 09:13:36;;;;;;;7.30;3.10;;;;;;;14.93;45.85;98451.98;106716;1270;66537;-38
2024/03/28 09:16:06;;;;;;;9.60;2.80;;;;;;;14.74;46.22;98414.59;106501;1266;73292;-39
2024/03/28 09:18:34;;;;;;;7.40;2.90;;;;;;;15.01;46.37;98448.21;108513;1265;60428;-39
2024/03/28 09:21:08;;;;;;;5.90;3.00;;;;;;;15.13;46.35;98444.06;108570;1264;59167;-40
2024/03/28 09:23:35;;;;;;;5.50;2.60;;;;;;;15.36;46.21;98442.88;108512;1265;74241;-40
2024/03/28 09:26:03;;;;;;;5.50;3.00;;;;;;;15.60;46.05;98440.58;108524;1265;68868;-39
2024/03/28 09:28:31;;;;;;;7.10;2.90;;;;;;;15.82;45.58;98439.05;108539;1265;73083;-39
2024/03/28 09:30:59;;;;;;;6.40;2.70;;;;;;;15.95;45.33;98428.82;107689;1271;62597;-39
2024/03/28 09:33:28;;;;;;;8.50;3.20;;;;;;;16.07;45.44;98427.75;106346;1266;62342;-38
2024/03/28 09:35:56;;;;;;;7.90;3.00;;;;;;;16.21;45.10;98435.77;106382;1265;74018;-39
2024/03/28 09:38:24;;;;;;;6.00;2.90;;;;;;;16.30;45.26;98426.32;106655;1265;65980;-39
2024/03/28 09:40:52;;;;;;;9.70;2.90;;;;;;;16.36;45.31;98423.38;106561;1265;73075;-39
2024/03/28 09:43:19;;;;;;;9.90;3.30;;;;;;;16.47;45.34;98430.90;106697;1264;60468;-38
2024/03/28 09:45:47;;;;;;;8.00;2.70;;;;;;;16.60;45.08;98428.16;106700;1265;60867;-38
2024/03/28 09:48:15;;;;;;;9.00;3.00;;;;;;;16.67;45.16;98418.64;106568;1271;75161;-38
2024/03/28 09:50:43;;;;;;;7.60;2.90;;;;;;;16.73;45.13;98418.05;106663;1270;70500;-37
2024/03/28 09:53:10;;;;;;;6.40;3.10;;;;;;;16.80;45.10;98409.94;106719;1266;73070;-38
2024/03/28 09:55:38;;;;;;;7.40;2.70;;;;;;;16.92;45.23;98414.20;106718;1267;60309;-39
2024/03/28 09:58:06;;;;;;;7.10;3.00;;;;;;;17.03;44.79;98415.23;106654;1265;60609;-39
2024/03/28 10:00:33;;;;;;;7.60;3.30;;;;;;;17.12;44.94;98412.51;106559;1266;73928;-39
2024/03/28 10:03:14;;;;;;;8.90;2.90;;;;;;;17.26;44.57;98412.33;106565;1266;67927;-39
2024/03/28 10:05:41;;;;;;;8.40;3.00;;;;;;;17.42;44.36;98403.27;106697;1266;74951;-39
2024/03/28 10:08:08;;;;;;;14.00;3.20;;;;;;;17.53;44.15;98398.23;106699;1266;62475;-39
2024/03/28 10:10:37;;;;;;;8.00;2.80;;;;;;;17.61;44.27;98396.11;106718;1266;61245;-40
2024/03/28 10:13:07;;;;;;;6.50;2.70;;;;;;;17.70;43.90;98381.39;106724;1266;73899;-39
2024/03/28 10:15:35;;;;;;;7.90;2.70;;;;;;;17.82;44.09;98382.49;106717;1268;66542;-40
2024/03/28 10:18:05;;;;;;;7.50;2.80;;;;;;;17.92;44.14;98374.54;106648;1265;73843;-39
2024/03/28 10:20:34;;;;;;;7.60;2.60;;;;;;;18.00;43.76;98374.73;106817;1266;61107;-39
2024/03/28 10:23:02;;;;;;;8.80;2.70;;;;;;;18.06;43.88;98377.99;106641;1263;60265;-38
2024/03/28 10:25:29;;;;;;;6.80;2.60;;;;;;;18.17;43.65;98376.69;106599;1269;76072;-39
2024/03/28 10:27:57;;;;;;;9.30;3.00;;;;;;;18.28;43.89;98368.86;106660;1266;67634;-39
2024/03/28 10:30:24;;;;;;;8.70;3.00;;;;;;;18.49;43.69;98363.08;106713;1266;72772;-38
2024/03/28 10:33:04;;;;;;;8.80;3.20;;;;;;;18.72;42.91;98360.02;106696;1265;59588;-39
2024/03/28 10:35:31;;;;;;;9.10;3.20;;;;;;;18.89;42.76;98353.46;106626;1265;60235;-38
2024/03/28 10:38:00;;;;;;;8.80;2.80;;;;;;;18.99;42.49;98363.56;106741;1266;74483;-39
2024/03/28 10:40:37;;;;;;;8.70;3.00;;;;;;;19.10;42.07;98369.61;106766;1266;69848;-39
2024/03/28 10:43:09;;;;;;;8.80;3.00;;;;;;;19.11;42.29;98368.23;106699;1266;72827;-39
2024/03/28 10:45:38;;;;;;;7.60;3.10;;;;;;;19.06;42.14;98358.73;106750;1266;60986;-38
2024/03/28 10:48:10;;;;;;;7.30;3.00;;;;;;;19.03;42.25;98349.97;106801;1263;60351;-38
2024/03/28 10:51:02;;;;;;;7.00;2.90;;;;;;;19.01;42.48;98350.18;106647;1266;74089;-39
2024/03/28 10:53:53;;;;;;;5.50;2.50;;;;;;;18.96;42.48;98336.28;106749;1265;66865;-39
2024/03/28 10:56:22;;;;;;;14.30;3.60;;;;;;;18.94;42.63;98329.11;106692;1266;71514;-39
2024/03/28 10:58:49;;;;;;;10.90;3.30;;;;;;;18.99;42.22;98328.34;106726;1267;59704;-39
2024/03/28 11:01:17;;;;;;;8.50;3.10;;;;;;;19.05;42.37;98323.08;106602;1268;60355;-39
2024/03/28 11:03:45;;;;;;;8.10;3.00;;;;;;;19.16;42.31;98321.52;106704;1269;72695;-39
2024/03/28 11:06:12;;;;;;;5.60;2.60;;;;;;;19.29;42.11;98328.16;106757;1267;66778;-39
2024/03/28 11:08:40;;;;;;;9.20;2.90;;;;;;;19.30;41.85;98321.70;106628;1270;74613;-39
2024/03/28 11:11:08;;;;;;;12.20;3.70;;;;;;;19.18;41.82;98323.03;106819;1263;60449;-39
2024/03/28 11:13:36;;;;;;;8.80;2.90;;;;;;;19.09;42.42;98317.41;106817;1266;62327;-39
2024/03/28 11:16:05;;;;;;;10.10;3.10;;;;;;;19.15;42.45;98303.27;106945;1266;72754;-39
2024/03/28 11:18:32;;;;;;;9.70;3.60;;;;;;;19.18;42.05;98309.59;106914;1262;67799;-45
2024/03/28 11:21:00;;;;;;;11.80;3.50;;;;;;;19.10;42.01;98304.91;106771;1264;72892;-40
2024/03/28 11:23:27;;;;;;;11.10;3.30;;;;;;;18.99;42.26;98303.77;106705;1263;60411;-40
2024/03/28 11:26:05;;;;;;;9.00;3.20;;;;;;;18.90;42.60;98297.57;106716;1268;61161;-40
2024/03/28 11:28:32;;;;;;;6.80;3.00;;;;;;;18.86;42.78;98294.40;106956;1265;73906;-39
2024/03/28 11:31:00;;;;;;;6.80;3.20;;;;;;;18.82;42.92;98291.46;106778;1263;67169;-39
2024/03/28 11:33:29;;;;;;;12.70;3.30;;;;;;;18.74;43.09;98281.82;107998;1263;71244;-39
2024/03/28 11:36:01;;;;;;;8.10;3.30;;;;;;;18.67;43.17;98280.09;106835;1263;60293;-39
2024/03/28 11:38:29;;;;;;;8.70;2.90;;;;;;;18.60;43.44;98284.04;106857;1263;59138;-39
2024/03/28 11:40:57;;;;;;;10.70;3.60;;;;;;;18.57;43.26;98289.33;106862;1266;72756;-39